createdAt,value
2018-08-09T00:00:51.553Z,94.07
2018-08-09T00:03:20.528Z,93.78
2018-08-09T00:05:49.432Z,93.60
2018-08-09T00:08:18.345Z,93.39
2018-08-09T00:10:47.248Z,93.47
2018-08-09T00:13:16.194Z,93.13
2018-08-09T00:15:45.096Z,94.18
2018-08-09T00:18:14.015Z,93.57
2018-08-09T00:20:42.903Z,93.58
2018-08-09T00:23:11.828Z,94.40
2018-08-09T00:25:40.844Z,94.29
2018-08-09T00:28:09.711Z,94.25
2018-08-09T00:30:38.684Z,94.26
2018-08-09T00:33:07.703Z,94.97
2018-08-09T00:35:36.634Z,95.43
2018-08-09T00:38:05.614Z,95.47
2018-08-09T00:40:34.632Z,95.09
2018-08-09T00:43:04.569Z,94.86
2018-08-09T00:45:33.618Z,94.85
2018-08-09T00:48:02.744Z,95.71
2018-08-09T00:50:31.647Z,96.41
2018-08-09T00:53:00.591Z,96.46
2018-08-09T00:55:29.564Z,96.25
2018-08-09T00:57:58.587Z,96.29
2018-08-09T01:00:27.550Z,96.53
2018-08-09T01:02:56.543Z,96.25
2018-08-09T01:05:25.511Z,95.88
2018-08-09T01:07:54.563Z,95.75
2018-08-09T01:10:23.511Z,95.56
2018-08-09T01:12:52.602Z,95.69
2018-08-09T01:15:21.521Z,94.63
2018-08-09T01:17:50.587Z,94.35
2018-08-09T01:20:20.691Z,94.49
2018-08-09T01:22:49.837Z,94.11
2018-08-09T01:25:18.795Z,95.04
2018-08-09T01:27:47.846Z,95.35
2018-08-09T01:30:17.038Z,94.63
2018-08-09T01:32:46.009Z,94.10
2018-08-09T01:35:14.956Z,94.24
2018-08-09T01:37:43.963Z,94.60
2018-08-09T01:40:12.950Z,94.82
2018-08-09T01:42:53.348Z,95.45
2018-08-09T01:45:22.365Z,95.77
2018-08-09T01:47:51.384Z,94.95
2018-08-09T01:50:20.418Z,94.57
2018-08-09T01:52:49.451Z,95.95
2018-08-09T01:55:18.523Z,95.36
2018-08-09T01:57:47.457Z,96.23
2018-08-09T02:00:16.406Z,96.53
2018-08-09T02:02:45.396Z,95.84
2018-08-09T02:05:15.013Z,95.93
2018-08-09T02:07:44.067Z,95.33
2018-08-09T02:10:13.088Z,95.17
2018-08-09T02:12:42.056Z,94.79
2018-08-09T02:15:10.958Z,95.69
2018-08-09T02:17:40.292Z,96.00
2018-08-09T02:20:09.203Z,96.30
2018-08-09T02:22:38.095Z,96.41
2018-08-09T02:25:07.004Z,95.63
2018-08-09T02:27:35.941Z,96.42
2018-08-09T02:30:05.803Z,95.25
2018-08-09T02:32:34.687Z,95.51
2018-08-09T02:35:03.614Z,95.74
2018-08-09T02:37:32.532Z,96.46
2018-08-09T02:40:01.459Z,96.84
2018-08-09T02:42:30.553Z,97.38
2018-08-09T02:44:59.463Z,95.49
2018-08-09T02:47:28.363Z,96.69
2018-08-09T02:49:57.294Z,97.03
2018-08-09T02:52:26.307Z,97.00
2018-08-09T02:54:55.311Z,96.58
2018-08-09T02:57:24.320Z,97.60
2018-08-09T02:59:53.347Z,97.68
2018-08-09T03:02:22.227Z,97.10
2018-08-09T03:04:51.151Z,97.38
2018-08-09T03:07:20.105Z,97.80
2018-08-09T03:09:49.007Z,96.90
2018-08-09T03:12:17.955Z,97.12
2018-08-09T03:14:47.127Z,97.83
2018-08-09T03:17:16.121Z,97.62
2018-08-09T03:19:44.955Z,97.51
2018-08-09T03:22:13.896Z,98.40
2018-08-09T03:24:42.859Z,97.95
2018-08-09T03:27:11.811Z,97.29
2018-08-09T03:29:40.744Z,98.24
2018-08-09T03:32:09.692Z,97.99
2018-08-09T03:34:38.628Z,97.52
2018-08-09T03:37:08.632Z,98.40
2018-08-09T03:39:37.563Z,97.95
2018-08-09T03:42:06.527Z,97.16
2018-08-09T03:44:35.514Z,98.18
2018-08-09T03:47:04.488Z,97.14
2018-08-09T03:49:33.435Z,97.57
2018-08-09T03:52:02.408Z,97.94
2018-08-09T03:54:31.383Z,97.52
2018-08-09T03:57:00.339Z,97.23
2018-08-09T03:59:29.294Z,97.40
2018-08-09T04:01:58.202Z,97.61
2018-08-09T04:04:27.190Z,97.41
2018-08-09T04:06:56.125Z,96.64
2018-08-09T04:09:25.068Z,97.10
2018-08-09T04:11:54.079Z,96.76
2018-08-09T04:14:23.104Z,96.27
2018-08-09T04:16:52.018Z,96.37
2018-08-09T04:19:20.967Z,95.90
2018-08-09T04:21:49.939Z,95.72
2018-08-09T04:24:18.854Z,96.59
2018-08-09T04:26:47.784Z,96.40
2018-08-09T04:29:16.684Z,96.13
2018-08-09T04:31:45.601Z,96.30
2018-08-09T04:34:14.540Z,95.92
2018-08-09T04:36:43.463Z,94.60
2018-08-09T04:39:12.462Z,95.80
2018-08-09T04:41:41.432Z,95.36
2018-08-09T04:44:10.339Z,94.48
2018-08-09T04:46:39.270Z,94.46
2018-08-09T04:49:08.257Z,94.29
2018-08-09T04:51:37.185Z,93.20
2018-08-09T04:54:06.128Z,92.43
2018-08-09T04:56:35.048Z,91.60
2018-08-09T04:59:04.767Z,91.47
2018-08-09T05:01:33.662Z,92.31
2018-08-09T05:04:02.581Z,90.49
2018-08-09T05:06:31.544Z,90.34
2018-08-09T05:09:00.475Z,89.85
2018-08-09T05:11:29.401Z,89.48
2018-08-09T05:13:58.323Z,90.12
2018-08-09T05:16:27.264Z,89.13
2018-08-09T05:18:56.178Z,88.88
2018-08-09T05:21:25.082Z,88.53
2018-08-09T05:23:54.032Z,88.15
2018-08-09T05:26:22.966Z,87.62
2018-08-09T05:28:51.884Z,87.39
2018-08-09T05:31:20.963Z,87.31
2018-08-09T05:33:49.912Z,87.49
2018-08-09T05:36:18.864Z,87.43
2018-08-09T05:38:47.845Z,86.52
2018-08-09T05:41:16.875Z,86.57
2018-08-09T05:43:45.862Z,85.64
2018-08-09T05:46:14.824Z,85.79
2018-08-09T05:48:43.790Z,83.70
2018-08-09T05:51:12.755Z,83.56
2018-08-09T05:53:41.722Z,83.48
2018-08-09T05:56:10.706Z,80.47
2018-08-09T05:58:39.703Z,77.70
2018-08-09T06:01:08.645Z,75.85
2018-08-09T06:03:37.640Z,74.62
2018-08-09T06:06:06.571Z,72.33
2018-08-09T06:08:35.550Z,71.16
2018-08-09T06:11:04.521Z,69.69
2018-08-09T06:13:33.522Z,66.03
2018-08-09T06:16:02.377Z,64.47
2018-08-09T06:18:31.436Z,61.76
2018-08-09T06:21:00.397Z,60.15
2018-08-09T06:23:29.320Z,60.39
2018-08-09T06:25:58.263Z,60.39
2018-08-09T06:28:27.205Z,59.11
2018-08-09T06:30:56.246Z,57.98
2018-08-09T06:33:25.234Z,56.89
2018-08-09T06:35:54.135Z,56.31
2018-08-09T06:38:23.047Z,53.60
2018-08-09T06:40:52.105Z,52.21
2018-08-09T06:43:21.116Z,53.29
2018-08-09T06:45:50.028Z,53.25
2018-08-09T06:48:19.022Z,51.07
2018-08-09T06:50:47.993Z,49.16
2018-08-09T06:53:16.925Z,48.74
2018-08-09T06:55:45.867Z,47.85
2018-08-09T06:58:14.792Z,48.17
2018-08-09T07:00:43.700Z,45.23
2018-08-09T07:03:12.652Z,43.77
2018-08-09T07:05:41.643Z,45.37
2018-08-09T07:08:10.518Z,42.60
2018-08-09T07:10:39.458Z,43.43
2018-08-09T07:13:08.373Z,42.44
2018-08-09T07:15:37.361Z,45.81
2018-08-09T07:18:06.344Z,45.33
2018-08-09T07:20:35.273Z,45.25
2018-08-09T07:23:04.215Z,43.67
2018-08-09T07:25:33.147Z,42.25
2018-08-09T07:28:02.166Z,43.37
2018-08-09T07:30:31.125Z,44.52
2018-08-09T07:33:00.089Z,45.74
2018-08-09T07:35:29.046Z,46.17
2018-08-09T07:37:58.018Z,46.77
2018-08-09T07:40:26.943Z,46.13
2018-08-09T07:42:55.868Z,44.39
2018-08-09T07:45:24.904Z,43.22
2018-08-09T07:47:53.867Z,44.16
2018-08-09T07:50:22.803Z,41.96
2018-08-09T07:52:51.728Z,44.20
2018-08-09T07:55:20.674Z,43.08
2018-08-09T07:57:49.628Z,42.96
2018-08-09T08:00:18.571Z,43.85
2018-08-09T08:02:47.506Z,41.72
2018-08-09T08:05:16.455Z,45.23
2018-08-09T08:07:45.451Z,45.51
2018-08-09T08:10:14.379Z,42.26
2018-08-09T08:12:43.352Z,41.03
2018-08-09T08:15:12.286Z,39.83
2018-08-09T08:17:41.223Z,41.29
2018-08-09T08:20:10.526Z,40.83
2018-08-09T08:22:39.451Z,45.03
2018-08-09T08:25:08.624Z,41.95
2018-08-09T08:27:37.752Z,41.73
2018-08-09T08:30:10.159Z,41.20
2018-08-09T08:32:39.684Z,41.03
2018-08-09T08:35:08.695Z,43.15
2018-08-09T08:37:38.103Z,39.75
2018-08-09T08:40:07.323Z,38.41
2018-08-09T08:42:36.697Z,37.30
2018-08-09T08:45:08.136Z,36.00
2018-08-09T08:47:37.115Z,36.11
2018-08-09T08:50:07.205Z,36.71
2018-08-09T08:52:36.312Z,38.01
2018-08-09T08:55:07.551Z,39.17
2018-08-09T08:57:36.496Z,39.10
2018-08-09T09:00:06.845Z,38.76
2018-08-09T09:02:35.941Z,41.95
2018-08-09T09:05:06.287Z,37.41
2018-08-09T09:07:35.292Z,37.34
2018-08-09T09:10:04.662Z,36.26
2018-08-09T09:12:33.630Z,36.12
2018-08-09T09:15:02.572Z,34.97
2018-08-09T09:17:31.504Z,33.02
2018-08-09T09:20:00.469Z,33.47
2018-08-09T09:22:29.463Z,34.32
2018-08-09T09:24:58.396Z,34.95
2018-08-09T09:27:27.323Z,34.86
2018-08-09T09:29:56.347Z,33.05
2018-08-09T09:32:25.282Z,35.16
2018-08-09T09:34:54.235Z,33.52
2018-08-09T09:37:23.070Z,33.01
2018-08-09T09:39:52.001Z,33.72
2018-08-09T09:42:20.905Z,31.68
2018-08-09T09:44:49.810Z,32.36
2018-08-09T09:47:18.769Z,30.88
2018-08-09T09:49:47.687Z,30.14
2018-08-09T09:52:16.613Z,30.84
2018-08-09T09:54:45.609Z,31.29
2018-08-09T09:57:14.570Z,31.00
2018-08-09T09:59:43.574Z,31.28
2018-08-09T10:02:12.499Z,31.91
2018-08-09T10:04:41.428Z,31.57
2018-08-09T10:07:10.419Z,31.37
2018-08-09T10:09:39.323Z,30.05
2018-08-09T10:12:08.326Z,30.79
2018-08-09T10:14:37.288Z,31.32
2018-08-09T10:17:06.200Z,31.62
2018-08-09T10:19:35.099Z,29.85
2018-08-09T10:22:04.029Z,30.27
2018-08-09T10:24:32.928Z,31.02
2018-08-09T10:27:01.869Z,32.24
2018-08-09T10:29:30.806Z,28.32
2018-08-09T10:31:59.828Z,26.44
2018-08-09T10:34:28.743Z,26.73
2018-08-09T10:36:57.653Z,26.69
2018-08-09T10:39:26.588Z,25.67
2018-08-09T10:41:55.571Z,27.00
2018-08-09T10:44:24.520Z,26.32
2018-08-09T10:46:53.427Z,26.13
2018-08-09T10:49:22.410Z,25.78
2018-08-09T10:51:51.334Z,27.61
2018-08-09T10:54:20.315Z,27.17
2018-08-09T10:56:49.230Z,27.24
2018-08-09T10:59:18.143Z,27.19
2018-08-09T11:01:47.104Z,26.09
2018-08-09T11:04:16.110Z,28.39
2018-08-09T11:06:45.020Z,26.39
2018-08-09T11:09:13.944Z,24.73
2018-08-09T11:11:46.717Z,26.22
2018-08-09T11:14:15.633Z,27.04
2018-08-09T11:16:44.612Z,27.25
2018-08-09T11:19:13.548Z,27.04
2018-08-09T11:21:42.449Z,25.93
2018-08-09T11:24:11.353Z,26.57
2018-08-09T11:26:40.305Z,27.15
2018-08-09T11:29:09.304Z,26.38
2018-08-09T11:31:38.235Z,26.86
2018-08-09T11:34:07.163Z,26.74
2018-08-09T11:36:36.055Z,26.87
2018-08-09T11:39:08.407Z,27.51
2018-08-09T11:41:37.327Z,26.71
2018-08-09T11:44:06.285Z,26.64
2018-08-09T11:46:35.250Z,25.32
2018-08-09T11:49:04.249Z,25.89
2018-08-09T11:51:33.190Z,25.37
2018-08-09T11:54:02.144Z,23.90
2018-08-09T11:56:31.249Z,25.50
2018-08-09T11:59:00.215Z,25.00
2018-08-09T12:01:29.239Z,25.80
2018-08-09T12:03:58.270Z,25.51
2018-08-09T12:06:27.289Z,25.96
2018-08-09T12:08:56.291Z,25.35
2018-08-09T12:11:25.395Z,26.94
2018-08-09T12:13:54.328Z,26.36
2018-08-09T12:16:23.349Z,28.07
2018-08-09T12:18:52.295Z,27.64
2018-08-09T12:21:21.367Z,27.38
2018-08-09T12:23:50.317Z,26.50
2018-08-09T12:26:19.321Z,25.37
2018-08-09T12:28:48.260Z,25.47
2018-08-09T12:31:17.256Z,26.32
2018-08-09T12:33:46.206Z,24.73
2018-08-09T12:36:15.211Z,25.01
2018-08-09T12:38:44.264Z,26.88
2018-08-09T12:41:13.223Z,26.22
2018-08-09T12:43:42.123Z,24.32
2018-08-09T12:46:11.054Z,23.83
2018-08-09T12:48:40.004Z,25.54
2018-08-09T12:51:09.060Z,25.85
2018-08-09T12:53:37.999Z,26.06
2018-08-09T12:56:06.980Z,26.13
2018-08-09T12:58:36.286Z,26.52
2018-08-09T13:01:05.332Z,26.35
2018-08-09T13:03:34.261Z,26.23
2018-08-09T13:06:03.494Z,25.56
2018-08-09T13:08:32.434Z,25.14
2018-08-09T13:11:01.440Z,24.91
2018-08-09T13:13:30.296Z,24.87
2018-08-09T13:15:59.239Z,25.70
2018-08-09T13:18:28.181Z,26.14
2018-08-09T13:20:57.248Z,26.40
2018-08-09T13:23:26.267Z,25.61
2018-08-09T13:25:55.191Z,27.26
2018-08-09T13:28:24.245Z,28.58
2018-08-09T13:30:53.353Z,27.76
2018-08-09T13:33:22.325Z,27.00
2018-08-09T13:35:51.283Z,26.92
2018-08-09T13:38:20.245Z,26.31
2018-08-09T13:40:49.268Z,25.50
2018-08-09T13:43:18.267Z,26.97
2018-08-09T13:45:47.259Z,27.67
2018-08-09T13:48:16.192Z,27.48
2018-08-09T13:50:45.110Z,29.27
2018-08-09T13:53:14.185Z,28.67
2018-08-09T13:55:43.303Z,28.41
2018-08-09T13:58:12.296Z,27.98
2018-08-09T14:00:41.309Z,27.28
2018-08-09T14:03:10.262Z,27.96
2018-08-09T14:05:39.276Z,27.04
2018-08-09T14:08:08.272Z,26.76
2018-08-09T14:10:37.333Z,25.83
2018-08-09T14:13:06.238Z,27.85
2018-08-09T14:15:35.180Z,27.69
2018-08-09T14:18:04.448Z,27.13
2018-08-09T14:20:33.374Z,28.02
2018-08-09T14:23:02.320Z,28.12
2018-08-09T14:25:31.297Z,27.34
2018-08-09T14:28:00.201Z,26.98
2018-08-09T14:30:29.215Z,26.54
2018-08-09T14:32:58.441Z,28.01
2018-08-09T14:35:27.335Z,26.79
2018-08-09T14:37:56.361Z,27.78
2018-08-09T14:40:25.337Z,29.12
2018-08-09T14:42:54.421Z,30.91
2018-08-09T14:45:23.451Z,30.37
2018-08-09T14:47:52.418Z,29.61
2018-08-09T14:50:21.492Z,28.19
2018-08-09T14:52:50.420Z,29.22
2018-08-09T14:55:19.374Z,29.75
2018-08-09T14:57:48.344Z,29.56
2018-08-09T15:00:18.866Z,29.24
2018-08-09T15:02:48.167Z,28.38
2018-08-09T15:05:17.588Z,28.86
2018-08-09T15:07:46.521Z,28.90
2018-08-09T15:10:16.263Z,26.78
2018-08-09T15:12:45.204Z,26.78
2018-08-09T15:15:14.159Z,27.70
2018-08-09T15:17:43.155Z,26.96
2018-08-09T15:20:13.356Z,27.38
2018-08-09T15:22:42.441Z,28.68
2018-08-09T15:25:11.976Z,27.65
2018-08-09T15:27:40.960Z,27.92
2018-08-09T15:30:13.454Z,27.42
2018-08-09T15:32:42.474Z,27.91
2018-08-09T15:35:11.516Z,27.96
2018-08-09T15:37:40.479Z,28.45
2018-08-09T15:40:10.535Z,27.45
2018-08-09T15:42:39.443Z,29.27
2018-08-09T15:45:11.080Z,28.92
2018-08-09T15:47:40.600Z,27.66
2018-08-09T15:50:13.359Z,28.11
2018-08-09T15:52:42.796Z,27.98
2018-08-09T15:55:11.992Z,28.13
2018-08-09T15:57:40.923Z,27.90
2018-08-09T16:00:13.154Z,28.84
2018-08-09T16:02:42.082Z,28.32
2018-08-09T16:05:10.996Z,28.02
2018-08-09T16:07:40.012Z,28.51
2018-08-09T16:10:12.218Z,28.27
2018-08-09T16:12:41.404Z,29.32
2018-08-09T16:15:13.778Z,27.76
2018-08-09T16:17:43.160Z,29.47
2018-08-09T16:23:12.004Z,29.54
2018-08-09T16:25:41.038Z,30.41
2018-08-09T16:28:09.949Z,29.96
2018-08-09T16:30:38.899Z,28.97
2018-08-09T16:33:07.798Z,29.33
2018-08-09T16:35:36.739Z,30.18
2018-08-09T16:38:05.657Z,29.03
2018-08-09T16:40:34.560Z,30.02
2018-08-09T16:43:03.515Z,29.57
2018-08-09T16:45:32.504Z,29.99
2018-08-09T16:48:01.453Z,29.93
2018-08-09T16:50:30.345Z,31.10
2018-08-09T16:52:59.329Z,30.61
2018-08-09T16:55:28.770Z,30.76
2018-08-09T16:57:57.684Z,30.17
2018-08-09T17:00:26.698Z,31.66
2018-08-09T17:02:55.929Z,31.49
2018-08-09T17:05:26.068Z,30.65
2018-08-09T17:07:55.020Z,30.66
2018-08-09T17:10:24.859Z,31.33
2018-08-09T17:12:53.786Z,31.60
2018-08-09T17:15:24.603Z,31.42
2018-08-09T17:17:54.128Z,31.88
2018-08-09T17:20:25.559Z,32.86
2018-08-09T17:22:54.487Z,32.84
2018-08-09T17:25:23.470Z,32.80
2018-08-09T17:27:52.551Z,32.50
2018-08-09T17:30:23.334Z,32.94
2018-08-09T17:32:52.208Z,33.37
2018-08-09T17:35:21.467Z,32.78
2018-08-09T17:37:50.539Z,33.66
2018-08-09T17:40:24.464Z,32.65
2018-08-09T17:42:54.308Z,32.81
2018-08-09T17:45:26.537Z,32.68
2018-08-09T17:47:55.483Z,32.20
2018-08-09T17:50:24.417Z,33.52
2018-08-09T17:52:53.883Z,34.32
2018-08-09T17:55:22.905Z,32.82
2018-08-09T17:57:51.900Z,34.39
2018-08-09T18:00:25.153Z,34.17
2018-08-09T18:02:54.542Z,34.30
2018-08-09T18:05:23.480Z,34.47
2018-08-09T18:07:53.106Z,33.14
2018-08-09T18:10:25.283Z,34.28
2018-08-09T18:12:54.265Z,36.59
2018-08-09T18:15:24.304Z,38.68
2018-08-09T18:17:53.370Z,38.26
2018-08-09T18:20:24.350Z,39.67
2018-08-09T18:22:53.332Z,40.66
2018-08-09T18:25:26.887Z,41.33
2018-08-09T18:27:55.909Z,41.51
2018-08-09T18:30:24.895Z,42.67
2018-08-09T18:32:53.991Z,42.77
2018-08-09T18:35:22.800Z,43.06
2018-08-09T18:37:51.785Z,45.58
2018-08-09T18:40:24.084Z,45.03
2018-08-09T18:42:53.048Z,45.89
2018-08-09T18:45:22.273Z,46.17
2018-08-09T18:47:51.276Z,45.09
2018-08-09T18:50:27.987Z,45.54
2018-08-09T18:52:57.158Z,45.99
2018-08-09T18:55:26.104Z,45.90
2018-08-09T18:57:55.029Z,45.53
2018-08-09T19:00:25.910Z,46.74
2018-08-09T19:02:55.047Z,46.04
2018-08-09T19:05:24.165Z,46.65
2018-08-09T19:07:53.180Z,46.55
2018-08-09T19:10:24.527Z,47.63
2018-08-09T19:12:53.645Z,46.77
2018-08-09T19:15:22.603Z,48.81
2018-08-09T19:17:51.739Z,48.58
2018-08-09T19:20:22.596Z,50.17
2018-08-09T19:22:51.875Z,48.45
2018-08-09T19:25:20.832Z,51.31
2018-08-09T19:27:49.797Z,48.38
2018-08-09T19:30:20.326Z,48.78
2018-08-09T19:32:49.441Z,48.66
2018-08-09T19:35:19.209Z,51.80
2018-08-09T19:37:48.140Z,50.73
2018-08-09T19:40:20.348Z,53.02
2018-08-09T19:42:49.371Z,51.72
2018-08-09T19:45:18.914Z,51.60
2018-08-09T19:47:47.859Z,51.79
2018-08-09T19:50:18.387Z,54.14
2018-08-09T19:52:47.320Z,55.21
2018-08-09T19:55:17.715Z,54.35
2018-08-09T19:57:47.833Z,52.18
2018-08-09T20:00:24.814Z,50.56
2018-08-09T20:02:53.745Z,47.69
2018-08-09T20:05:23.378Z,47.27
2018-08-09T20:07:52.472Z,48.09
2018-08-09T20:10:21.402Z,48.03
2018-08-09T20:12:50.379Z,47.07
2018-08-09T20:15:20.453Z,46.85
2018-08-09T20:17:49.416Z,47.77
2018-08-09T20:20:19.972Z,48.37
2018-08-09T20:22:48.921Z,48.02
2018-08-09T20:25:17.935Z,48.31
2018-08-09T20:27:47.409Z,47.98
2018-08-09T20:30:17.168Z,48.39
2018-08-09T20:32:46.667Z,48.91
2018-08-09T20:35:19.209Z,47.84
2018-08-09T20:37:48.398Z,48.26
2018-08-09T20:40:17.916Z,47.50
2018-08-09T20:42:47.847Z,48.97
2018-08-09T20:45:18.257Z,49.01
2018-08-09T20:47:47.187Z,48.55
2018-08-09T20:50:18.195Z,50.07
2018-08-09T20:52:47.790Z,49.23
2018-08-09T20:55:17.007Z,49.71
2018-08-09T20:57:46.800Z,50.39
2018-08-09T21:00:19.954Z,49.87
2018-08-09T21:02:50.242Z,50.66
2018-08-09T21:05:21.574Z,50.92
2018-08-09T21:07:51.480Z,52.02
2018-08-09T21:10:20.771Z,52.28
2018-08-09T21:12:49.697Z,52.51
2018-08-09T21:15:19.446Z,52.99
2018-08-09T21:17:48.372Z,52.96
2018-08-09T21:20:17.335Z,53.74
2018-08-09T21:22:47.376Z,54.43
2018-08-09T21:25:16.423Z,54.31
2018-08-09T21:27:45.871Z,54.38
2018-08-09T21:30:18.680Z,54.27
2018-08-09T21:32:48.192Z,54.71
2018-08-09T21:35:17.148Z,55.01
2018-08-09T21:37:46.403Z,55.65
2018-08-09T21:40:15.755Z,55.10
2018-08-09T21:42:44.748Z,55.06
2018-08-09T21:45:18.971Z,55.87
2018-08-09T21:47:47.956Z,55.89
2018-08-09T21:50:18.217Z,56.13
2018-08-09T21:52:47.283Z,56.28
2018-08-09T21:55:16.256Z,56.59
2018-08-09T21:57:46.010Z,56.89
2018-08-09T22:00:55.131Z,57.92
2018-08-09T22:03:27.358Z,57.42
2018-08-09T22:06:01.564Z,58.07
2018-08-09T22:08:35.966Z,57.91
2018-08-09T22:11:10.699Z,58.51
2018-08-09T22:13:45.055Z,58.15
2018-08-09T22:16:19.400Z,59.40
2018-08-09T22:18:53.708Z,58.98
2018-08-09T22:21:28.040Z,59.89
2018-08-09T22:23:57.004Z,60.07
2018-08-09T22:26:26.007Z,59.84
2018-08-09T22:28:54.940Z,59.88
2018-08-09T22:31:23.885Z,60.98
2018-08-09T22:33:52.811Z,60.64
2018-08-09T22:36:21.775Z,60.80
2018-08-09T22:38:50.649Z,60.59
2018-08-09T22:41:19.661Z,61.54
2018-08-09T22:43:48.615Z,62.20
2018-08-09T22:46:17.566Z,62.28
2018-08-09T22:48:46.487Z,61.26
2018-08-09T22:51:15.372Z,61.93
2018-08-09T22:53:44.316Z,62.47
2018-08-09T22:56:13.287Z,62.40
2018-08-09T22:58:42.203Z,62.22
2018-08-09T23:01:11.211Z,62.76
2018-08-09T23:03:40.132Z,62.42
2018-08-09T23:06:09.008Z,63.35
2018-08-09T23:08:37.918Z,62.97
2018-08-09T23:11:07.352Z,62.14
2018-08-09T23:13:36.302Z,61.60
2018-08-09T23:16:05.874Z,61.41
2018-08-09T23:18:34.802Z,60.86
2018-08-09T23:21:03.727Z,60.69
2018-08-09T23:23:32.677Z,60.65
2018-08-09T23:26:01.639Z,60.73
2018-08-09T23:28:30.666Z,61.08
2018-08-09T23:30:59.693Z,59.57
2018-08-09T23:33:28.662Z,60.63
2018-08-09T23:35:57.584Z,60.65
2018-08-09T23:38:27.496Z,59.69
2018-08-09T23:40:56.458Z,59.37
2018-08-09T23:46:00.614Z,59.38
2018-08-09T23:48:29.544Z,58.45
2018-08-09T23:50:58.485Z,58.22
2018-08-09T23:53:27.456Z,58.98
2018-08-09T23:55:56.412Z,58.52
2018-08-09T23:58:25.384Z,58.27
